createdAt,value
2018-08-18T00:00:37.113Z,993.62
2018-08-18T00:01:37.115Z,993.63
2018-08-18T00:02:37.118Z,993.65
2018-08-18T00:03:37.121Z,993.67
2018-08-18T00:04:37.121Z,993.68
2018-08-18T00:05:37.124Z,993.71
2018-08-18T00:06:37.124Z,993.76
2018-08-18T00:07:37.129Z,993.79
2018-08-18T00:08:37.129Z,993.85
2018-08-18T00:09:37.130Z,993.89
2018-08-18T00:10:37.135Z,993.87
2018-08-18T00:11:37.140Z,993.89
2018-08-18T00:12:37.135Z,993.86
2018-08-18T00:13:37.140Z,993.89
2018-08-18T00:14:37.139Z,993.9
2018-08-18T00:15:37.141Z,993.92
2018-08-18T00:16:37.146Z,993.92
2018-08-18T00:17:37.147Z,993.95
2018-08-18T00:18:37.146Z,993.99
2018-08-18T00:19:37.149Z,993.96
2018-08-18T00:20:37.150Z,993.94
2018-08-18T00:21:37.151Z,994
2018-08-18T00:22:37.160Z,993.98
2018-08-18T00:23:37.158Z,993.99
2018-08-18T00:24:37.159Z,994.01
2018-08-18T00:25:37.158Z,994.03
2018-08-18T00:26:37.161Z,994.04
2018-08-18T00:27:37.179Z,994.04
2018-08-18T00:28:37.164Z,994.03
2018-08-18T00:29:37.167Z,994.05
2018-08-18T00:30:37.170Z,994.04
2018-08-18T00:31:37.173Z,994.03
2018-08-18T00:32:37.170Z,993.97
2018-08-18T00:33:37.185Z,993.95
2018-08-18T00:34:37.173Z,993.99
2018-08-18T00:35:37.185Z,993.92
2018-08-18T00:36:37.193Z,993.95
2018-08-18T00:37:37.189Z,993.9
2018-08-18T00:38:37.185Z,993.89
2018-08-18T00:39:37.187Z,993.93
2018-08-18T00:40:37.185Z,993.89
2018-08-18T00:41:37.185Z,993.95
2018-08-18T00:42:37.191Z,993.92
2018-08-18T00:43:37.191Z,993.95
2018-08-18T00:44:37.191Z,993.92
2018-08-18T00:45:37.193Z,993.9
2018-08-18T00:46:37.196Z,993.88
2018-08-18T00:47:37.196Z,993.88
2018-08-18T00:48:37.196Z,993.89
2018-08-18T00:49:37.207Z,993.85
2018-08-18T00:50:37.200Z,993.85
2018-08-18T00:51:37.210Z,993.88
2018-08-18T00:52:37.210Z,993.92
2018-08-18T00:53:37.213Z,993.91
2018-08-18T00:54:37.210Z,993.94
2018-08-18T00:55:37.211Z,993.95
2018-08-18T00:56:37.214Z,993.98
2018-08-18T00:57:37.213Z,993.98
2018-08-18T00:58:37.217Z,994
2018-08-18T00:59:37.216Z,993.98
2018-08-18T01:00:37.218Z,993.99
2018-08-18T01:01:37.224Z,994.01
2018-08-18T01:02:37.220Z,993.93
2018-08-18T01:03:37.225Z,993.96
2018-08-18T01:04:37.223Z,994.01
2018-08-18T01:05:37.230Z,994.02
2018-08-18T01:06:37.229Z,994.09
2018-08-18T01:07:37.228Z,994.1
2018-08-18T01:08:37.231Z,994.14
2018-08-18T01:09:37.234Z,994.11
2018-08-18T01:10:37.241Z,994.09
2018-08-18T01:11:37.301Z,994.12
2018-08-18T01:12:37.310Z,994.13
2018-08-18T01:13:37.454Z,994.13
2018-08-18T01:14:37.288Z,994.16
2018-08-18T01:15:37.266Z,994.18
2018-08-18T01:16:37.246Z,994.2
2018-08-18T01:17:37.260Z,994.2
2018-08-18T01:18:37.247Z,994.22
2018-08-18T01:19:37.248Z,994.24
2018-08-18T01:20:37.253Z,994.25
2018-08-18T01:21:37.256Z,994.25
2018-08-18T01:22:37.263Z,994.29
2018-08-18T01:23:37.275Z,994.32
2018-08-18T01:24:37.267Z,994.38
2018-08-18T01:25:37.267Z,994.37
2018-08-18T01:26:37.261Z,994.36
2018-08-18T01:27:37.264Z,994.33
2018-08-18T01:28:37.264Z,994.33
2018-08-18T01:29:37.265Z,994.34
2018-08-18T01:30:37.270Z,994.36
2018-08-18T01:31:37.270Z,994.36
2018-08-18T01:32:37.269Z,994.38
2018-08-18T01:33:37.271Z,994.38
2018-08-18T01:34:37.275Z,994.42
2018-08-18T01:35:37.272Z,994.41
2018-08-18T01:36:37.273Z,994.41
2018-08-18T01:37:37.278Z,994.42
2018-08-18T01:38:37.279Z,994.43
2018-08-18T01:39:37.283Z,994.44
2018-08-18T01:40:37.282Z,994.4
2018-08-18T01:41:37.284Z,994.42
2018-08-18T01:42:37.284Z,994.41
2018-08-18T01:43:37.300Z,994.42
2018-08-18T01:44:37.289Z,994.42
2018-08-18T01:45:37.290Z,994.43
2018-08-18T01:46:37.292Z,994.43
2018-08-18T01:47:37.294Z,994.39
2018-08-18T01:48:37.298Z,994.38
2018-08-18T01:49:37.294Z,994.45
2018-08-18T01:50:37.298Z,994.38
2018-08-18T01:51:37.298Z,994.41
2018-08-18T01:52:37.303Z,994.41
2018-08-18T01:53:37.303Z,994.41
2018-08-18T01:54:37.303Z,994.39
2018-08-18T01:55:37.309Z,994.41
2018-08-18T01:56:37.308Z,994.41
2018-08-18T01:57:37.313Z,994.38
2018-08-18T01:58:37.324Z,994.36
2018-08-18T01:59:37.333Z,994.38
2018-08-18T02:00:37.327Z,994.39
2018-08-18T02:01:37.331Z,994.37
2018-08-18T02:02:37.333Z,994.37
2018-08-18T02:03:37.352Z,994.37
2018-08-18T02:04:37.333Z,994.37
2018-08-18T02:05:37.330Z,994.39
2018-08-18T02:06:37.339Z,994.42
2018-08-18T02:07:37.336Z,994.37
2018-08-18T02:08:37.338Z,994.4
2018-08-18T02:09:37.333Z,994.38
2018-08-18T02:10:37.337Z,994.39
2018-08-18T02:11:37.336Z,994.4
2018-08-18T02:12:37.341Z,994.44
2018-08-18T02:13:37.337Z,994.44
2018-08-18T02:14:37.345Z,994.41
2018-08-18T02:15:37.348Z,994.43
2018-08-18T02:16:37.348Z,994.43
2018-08-18T02:17:37.369Z,994.43
2018-08-18T02:18:37.356Z,994.42
2018-08-18T02:19:37.348Z,994.43
2018-08-18T02:20:37.353Z,994.39
2018-08-18T02:21:37.355Z,994.41
2018-08-18T02:22:37.358Z,994.37
2018-08-18T02:23:37.352Z,994.38
2018-08-18T02:24:37.356Z,994.34
2018-08-18T02:25:37.359Z,994.34
2018-08-18T02:26:37.367Z,994.37
2018-08-18T02:27:37.376Z,994.37
2018-08-18T02:28:37.363Z,994.37
2018-08-18T02:29:37.365Z,994.39
2018-08-18T02:30:37.366Z,994.38
2018-08-18T02:31:37.371Z,994.37
2018-08-18T02:32:37.370Z,994.38
2018-08-18T02:33:37.385Z,994.39
2018-08-18T02:34:37.371Z,994.38
2018-08-18T02:35:37.373Z,994.36
2018-08-18T02:36:37.374Z,994.35
2018-08-18T02:37:37.372Z,994.37
2018-08-18T02:38:37.391Z,994.35
2018-08-18T02:39:37.395Z,994.35
2018-08-18T02:40:37.381Z,994.34
2018-08-18T02:41:37.390Z,994.33
2018-08-18T02:42:37.381Z,994.29
2018-08-18T02:43:37.383Z,994.28
2018-08-18T02:44:37.391Z,994.31
2018-08-18T02:45:37.387Z,994.27
2018-08-18T02:46:37.389Z,994.28
2018-08-18T02:47:37.395Z,994.28
2018-08-18T02:48:37.390Z,994.28
2018-08-18T02:49:37.404Z,994.27
2018-08-18T02:50:37.408Z,994.25
2018-08-18T02:51:37.410Z,994.27
2018-08-18T02:52:37.409Z,994.23
2018-08-18T02:53:37.409Z,994.24
2018-08-18T02:54:37.407Z,994.26
2018-08-18T02:55:37.409Z,994.27
2018-08-18T02:56:37.409Z,994.31
2018-08-18T02:57:37.410Z,994.31
2018-08-18T02:58:37.411Z,994.34
2018-08-18T02:59:37.412Z,994.34
2018-08-18T03:00:37.411Z,994.35
2018-08-18T03:01:37.413Z,994.35
2018-08-18T03:02:37.431Z,994.38
2018-08-18T03:03:37.415Z,994.36
2018-08-18T03:04:37.414Z,994.33
2018-08-18T03:05:37.413Z,994.33
2018-08-18T03:06:37.418Z,994.35
2018-08-18T03:07:37.432Z,994.35
2018-08-18T03:08:38.219Z,994.39
2018-08-18T03:09:37.434Z,994.4
2018-08-18T03:10:37.432Z,994.4
2018-08-18T03:11:37.435Z,994.44
2018-08-18T03:12:37.434Z,994.44
2018-08-18T03:13:37.444Z,994.47
2018-08-18T03:14:37.440Z,994.52
2018-08-18T03:15:37.452Z,994.54
2018-08-18T03:16:37.441Z,994.58
2018-08-18T03:17:37.440Z,994.59
2018-08-18T03:18:37.447Z,994.59
2018-08-18T03:19:37.439Z,994.6
2018-08-18T03:20:37.438Z,994.65
2018-08-18T03:21:37.439Z,994.63
2018-08-18T03:22:37.442Z,994.64
2018-08-18T03:23:37.444Z,994.67
2018-08-18T03:24:37.443Z,994.7
2018-08-18T03:25:37.445Z,994.71
2018-08-18T03:26:37.440Z,994.73
2018-08-18T03:27:37.444Z,994.74
2018-08-18T03:28:37.447Z,994.75
2018-08-18T03:29:37.452Z,994.77
2018-08-18T03:30:37.453Z,994.83
2018-08-18T03:31:37.453Z,994.85
2018-08-18T03:32:37.465Z,994.84
2018-08-18T03:33:37.454Z,994.87
2018-08-18T03:34:37.455Z,994.88
2018-08-18T03:35:37.456Z,994.85
2018-08-18T03:36:37.457Z,994.87
2018-08-18T03:37:37.463Z,994.91
2018-08-18T03:38:37.461Z,994.92
2018-08-18T03:39:37.471Z,994.92
2018-08-18T03:40:37.462Z,994.94
2018-08-18T03:41:37.479Z,994.96
2018-08-18T03:42:37.469Z,994.95
2018-08-18T03:43:37.463Z,994.96
2018-08-18T03:44:37.473Z,994.96
2018-08-18T03:45:37.463Z,994.98
2018-08-18T03:46:37.467Z,995.01
2018-08-18T03:47:37.470Z,995.04
2018-08-18T03:48:37.470Z,995.07
2018-08-18T03:49:37.472Z,995.07
2018-08-18T03:50:37.473Z,995.07
2018-08-18T03:51:37.470Z,995.08
2018-08-18T03:52:37.483Z,995.03
2018-08-18T03:53:37.474Z,995.08
2018-08-18T03:54:37.487Z,995.06
2018-08-18T03:55:37.476Z,995.04
2018-08-18T03:56:37.476Z,995.08
2018-08-18T03:57:37.479Z,995.05
2018-08-18T03:58:37.478Z,995.04
2018-08-18T03:59:37.481Z,995.03
2018-08-18T04:00:37.476Z,995.01
2018-08-18T04:01:37.579Z,995.04
2018-08-18T04:02:37.500Z,995.04
2018-08-18T04:03:37.478Z,995.04
2018-08-18T04:04:37.486Z,995.05
2018-08-18T04:05:37.485Z,995.04
2018-08-18T04:06:37.483Z,995
2018-08-18T04:07:37.496Z,995.04
2018-08-18T04:08:37.485Z,995.05
2018-08-18T04:09:37.488Z,995.07
2018-08-18T04:10:37.488Z,995.07
2018-08-18T04:11:37.484Z,995.07
2018-08-18T04:12:37.486Z,995.1
2018-08-18T04:13:37.486Z,995.12
2018-08-18T04:14:37.487Z,995.09
2018-08-18T04:15:37.488Z,995.12
2018-08-18T04:16:37.496Z,995.12
2018-08-18T04:17:37.487Z,995.12
2018-08-18T04:18:37.487Z,995.15
2018-08-18T04:19:37.488Z,995.1
2018-08-18T04:20:37.506Z,995.11
2018-08-18T04:21:37.494Z,995.12
2018-08-18T04:22:37.501Z,995.16
2018-08-18T04:23:37.496Z,995.11
2018-08-18T04:24:37.494Z,995.1
2018-08-18T04:25:37.499Z,995.08
2018-08-18T04:26:37.492Z,995.11
2018-08-18T04:27:37.499Z,995.08
2018-08-18T04:28:37.503Z,995.12
2018-08-18T04:29:37.499Z,995.12
2018-08-18T04:30:37.500Z,995.14
2018-08-18T04:31:37.496Z,995.13
2018-08-18T04:32:37.497Z,995.1
2018-08-18T04:33:37.503Z,995.13
2018-08-18T04:34:37.499Z,995.14
2018-08-18T04:35:37.510Z,995.13
2018-08-18T04:36:37.517Z,995.12
2018-08-18T04:37:37.500Z,995.14
2018-08-18T04:38:37.504Z,995.19
2018-08-18T04:39:37.506Z,995.18
2018-08-18T04:40:37.511Z,995.23
2018-08-18T04:41:37.507Z,995.23
2018-08-18T04:42:37.515Z,995.25
2018-08-18T04:43:37.506Z,995.23
2018-08-18T04:44:37.506Z,995.25
2018-08-18T04:45:37.511Z,995.28
2018-08-18T04:46:37.512Z,995.3
2018-08-18T04:47:37.507Z,995.28
2018-08-18T04:48:37.510Z,995.31
2018-08-18T04:49:37.508Z,995.33
2018-08-18T04:50:37.519Z,995.35
2018-08-18T04:51:37.512Z,995.35
2018-08-18T04:52:37.510Z,995.35
2018-08-18T04:53:37.513Z,995.35
2018-08-18T04:54:37.516Z,995.36
2018-08-18T04:55:37.553Z,995.35
2018-08-18T04:56:37.517Z,995.34
2018-08-18T04:57:37.518Z,995.29
2018-08-18T04:58:37.517Z,995.33
2018-08-18T04:59:37.521Z,995.32
2018-08-18T05:00:37.520Z,995.35
2018-08-18T05:01:37.518Z,995.3
2018-08-18T05:02:37.523Z,995.27
2018-08-18T05:03:37.522Z,995.28
2018-08-18T05:04:37.523Z,995.27
2018-08-18T05:05:37.521Z,995.32
2018-08-18T05:06:37.525Z,995.33
2018-08-18T05:07:37.526Z,995.33
2018-08-18T05:08:37.538Z,995.31
2018-08-18T05:09:37.531Z,995.32
2018-08-18T05:10:37.525Z,995.32
2018-08-18T05:11:37.612Z,995.3
2018-08-18T05:12:37.530Z,995.33
2018-08-18T05:13:37.535Z,995.33
2018-08-18T05:14:37.533Z,995.28
2018-08-18T05:15:37.547Z,995.28
2018-08-18T05:16:37.533Z,995.31
2018-08-18T05:17:37.541Z,995.33
2018-08-18T05:18:37.558Z,995.3
2018-08-18T05:19:37.544Z,995.32
2018-08-18T05:20:37.540Z,995.31
2018-08-18T05:21:37.557Z,995.35
2018-08-18T05:22:37.542Z,995.36
2018-08-18T05:23:37.555Z,995.33
2018-08-18T05:24:37.560Z,995.38
2018-08-18T05:25:37.559Z,995.38
2018-08-18T05:26:37.558Z,995.32
2018-08-18T05:27:37.559Z,995.33
2018-08-18T05:28:37.557Z,995.36
2018-08-18T05:29:37.555Z,995.33
2018-08-18T05:30:37.557Z,995.39
2018-08-18T05:31:37.559Z,995.42
2018-08-18T05:32:37.561Z,995.39
2018-08-18T05:33:37.571Z,995.36
2018-08-18T05:34:37.583Z,995.38
2018-08-18T05:35:37.569Z,995.38
2018-08-18T05:36:37.754Z,995.42
2018-08-18T05:37:37.574Z,995.35
2018-08-18T05:38:37.573Z,995.4
2018-08-18T05:39:37.577Z,995.43
2018-08-18T05:40:37.580Z,995.42
2018-08-18T05:41:37.585Z,995.44
2018-08-18T05:42:37.585Z,995.38
2018-08-18T05:43:37.597Z,995.38
2018-08-18T05:44:37.590Z,995.39
2018-08-18T05:45:37.591Z,995.38
2018-08-18T05:46:37.595Z,995.41
2018-08-18T05:47:37.636Z,995.41
2018-08-18T05:48:37.600Z,995.45
2018-08-18T05:49:38.402Z,995.4
2018-08-18T05:50:37.606Z,995.4
2018-08-18T05:51:37.608Z,995.42
2018-08-18T05:52:37.607Z,995.42
2018-08-18T05:53:37.613Z,995.4
2018-08-18T05:54:37.613Z,995.41
2018-08-18T05:55:37.614Z,995.39
2018-08-18T05:56:37.616Z,995.45
2018-08-18T05:57:37.623Z,995.4
2018-08-18T05:58:37.636Z,995.45
2018-08-18T05:59:37.641Z,995.46
2018-08-18T06:00:37.628Z,995.46
2018-08-18T06:01:37.630Z,995.46
2018-08-18T06:02:37.633Z,995.46
2018-08-18T06:03:37.634Z,995.45
2018-08-18T06:04:37.640Z,995.46
2018-08-18T06:05:37.649Z,995.49
2018-08-18T06:06:37.640Z,995.5
2018-08-18T06:07:37.640Z,995.47
2018-08-18T06:08:37.645Z,995.51
2018-08-18T06:09:37.646Z,995.54
2018-08-18T06:10:37.651Z,995.54
2018-08-18T06:11:37.653Z,995.54
2018-08-18T06:12:37.654Z,995.55
2018-08-18T06:13:37.656Z,995.57
2018-08-18T06:14:37.664Z,995.57
2018-08-18T06:15:37.662Z,995.59
2018-08-18T06:16:37.663Z,995.6
2018-08-18T06:17:37.665Z,995.61
2018-08-18T06:18:37.668Z,995.6
2018-08-18T06:19:37.670Z,995.64
2018-08-18T06:20:37.672Z,995.65
2018-08-18T06:21:37.675Z,995.66
2018-08-18T06:22:37.694Z,995.67
2018-08-18T06:23:37.678Z,995.7
2018-08-18T06:24:37.694Z,995.72
2018-08-18T06:25:37.682Z,995.72
2018-08-18T06:26:37.684Z,995.72
2018-08-18T06:27:37.686Z,995.71
2018-08-18T06:28:37.691Z,995.74
2018-08-18T06:29:37.707Z,995.72
2018-08-18T06:30:37.697Z,995.76
2018-08-18T06:31:37.696Z,995.78
2018-08-18T06:32:37.701Z,995.77
2018-08-18T06:33:37.704Z,995.74
2018-08-18T06:34:37.766Z,995.76
2018-08-18T06:35:37.706Z,995.76
2018-08-18T06:36:37.707Z,995.78
2018-08-18T06:37:37.708Z,995.8
2018-08-18T06:38:37.713Z,995.77
2018-08-18T06:39:37.713Z,995.8
2018-08-18T06:40:37.720Z,995.8
2018-08-18T06:41:37.901Z,995.78
2018-08-18T06:42:37.722Z,995.81
2018-08-18T06:43:37.742Z,995.79
2018-08-18T06:44:37.726Z,995.83
2018-08-18T06:45:37.728Z,995.81
2018-08-18T06:46:37.748Z,995.81
2018-08-18T06:47:37.734Z,995.8
2018-08-18T06:48:37.734Z,995.81
2018-08-18T06:49:37.735Z,995.84
2018-08-18T06:50:37.736Z,995.85
2018-08-18T06:51:37.754Z,995.88
2018-08-18T06:52:37.787Z,995.84
2018-08-18T06:53:37.787Z,995.82
2018-08-18T06:54:37.815Z,995.84
2018-08-18T06:55:37.747Z,995.83
2018-08-18T06:56:37.750Z,995.83
2018-08-18T06:57:37.765Z,995.83
2018-08-18T06:58:37.756Z,995.87
2018-08-18T06:59:37.757Z,995.85
2018-08-18T07:00:37.759Z,995.83
2018-08-18T07:01:37.757Z,995.8
2018-08-18T07:02:37.762Z,995.77
2018-08-18T07:03:37.763Z,995.82
2018-08-18T07:04:37.765Z,995.79
2018-08-18T07:05:37.767Z,995.73
2018-08-18T07:06:37.774Z,995.74
2018-08-18T07:07:37.770Z,995.74
2018-08-18T07:08:37.785Z,995.76
2018-08-18T07:09:37.779Z,995.78
2018-08-18T07:10:37.779Z,995.78
2018-08-18T07:11:37.781Z,995.78
2018-08-18T07:12:37.781Z,995.8
2018-08-18T07:13:37.784Z,995.79
2018-08-18T07:14:37.785Z,995.82
2018-08-18T07:15:37.790Z,995.81
2018-08-18T07:16:37.792Z,995.81
2018-08-18T07:17:37.795Z,995.82
2018-08-18T07:18:37.799Z,995.85
2018-08-18T07:19:37.797Z,995.86
2018-08-18T07:20:37.808Z,995.88
2018-08-18T07:21:37.803Z,995.84
2018-08-18T07:22:37.805Z,995.87
2018-08-18T07:23:37.808Z,995.89
2018-08-18T07:24:37.809Z,995.89
2018-08-18T07:25:37.814Z,995.91
2018-08-18T07:26:37.816Z,995.92
2018-08-18T07:27:37.821Z,995.94
2018-08-18T07:28:37.855Z,995.99
2018-08-18T07:29:37.824Z,995.98
2018-08-18T07:30:37.827Z,996.03
2018-08-18T07:31:37.826Z,996
2018-08-18T07:32:37.830Z,995.99
2018-08-18T07:33:37.831Z,995.99
2018-08-18T07:34:37.836Z,996
2018-08-18T07:35:37.842Z,995.99
2018-08-18T07:36:37.843Z,995.97
2018-08-18T07:37:37.908Z,995.94
2018-08-18T07:38:37.846Z,995.96
2018-08-18T07:39:37.850Z,995.97
2018-08-18T07:40:37.851Z,995.97
2018-08-18T07:41:37.854Z,996.02
2018-08-18T07:42:37.856Z,996.01
2018-08-18T07:43:37.882Z,995.99
2018-08-18T07:44:37.861Z,996.04
2018-08-18T07:45:37.863Z,996.05
2018-08-18T07:46:37.874Z,996.06
2018-08-18T07:47:37.868Z,996.04
2018-08-18T07:48:37.871Z,996.06
2018-08-18T07:49:37.878Z,996.06
2018-08-18T07:50:37.882Z,996.07
2018-08-18T07:51:37.886Z,996.09
2018-08-18T07:52:37.886Z,996.12
2018-08-18T07:53:38.030Z,996.11
2018-08-18T07:54:37.890Z,996.13
2018-08-18T07:55:37.898Z,996.16
2018-08-18T07:56:37.894Z,996.16
2018-08-18T07:57:37.905Z,996.18
2018-08-18T07:58:37.909Z,996.18
2018-08-18T07:59:37.907Z,996.19
2018-08-18T08:00:37.913Z,996.19
2018-08-18T08:01:37.907Z,996.21
2018-08-18T08:02:37.910Z,996.24
2018-08-18T08:03:37.912Z,996.25
2018-08-18T08:04:37.914Z,996.21
2018-08-18T08:05:37.976Z,996.28
2018-08-18T08:06:37.924Z,996.25
2018-08-18T08:07:37.925Z,996.26
2018-08-18T08:08:37.928Z,996.26
2018-08-18T08:09:37.935Z,996.27
2018-08-18T08:10:37.931Z,996.27
2018-08-18T08:11:37.937Z,996.29
2018-08-18T08:12:38.090Z,996.32
2018-08-18T08:13:37.953Z,996.31
2018-08-18T08:14:37.947Z,996.26
2018-08-18T08:15:37.954Z,996.29
2018-08-18T08:16:37.954Z,996.29
2018-08-18T08:17:37.959Z,996.3
2018-08-18T08:18:37.965Z,996.3
2018-08-18T08:19:37.980Z,996.31
2018-08-18T08:20:38.033Z,996.26
2018-08-18T08:21:37.987Z,996.28
2018-08-18T08:22:37.993Z,996.26
2018-08-18T08:23:37.992Z,996.27
2018-08-18T08:24:37.987Z,996.3
2018-08-18T08:25:37.997Z,996.33
2018-08-18T08:26:37.996Z,996.32
2018-08-18T08:27:37.999Z,996.38
2018-08-18T08:28:38.012Z,996.41
2018-08-18T08:29:38.017Z,996.48
2018-08-18T08:30:38.011Z,996.48
2018-08-18T08:31:38.018Z,996.46
2018-08-18T08:32:38.020Z,996.46
2018-08-18T08:33:38.029Z,996.43
2018-08-18T08:34:38.038Z,996.42
2018-08-18T08:35:38.048Z,996.41
2018-08-18T08:36:38.056Z,996.42
2018-08-18T08:37:38.049Z,996.41
2018-08-18T08:38:38.055Z,996.39
2018-08-18T08:39:38.061Z,996.41
2018-08-18T08:40:38.067Z,996.4
2018-08-18T08:41:38.076Z,996.34
2018-08-18T08:42:38.081Z,996.31
2018-08-18T08:43:38.082Z,996.33
2018-08-18T08:44:38.093Z,996.27
2018-08-18T08:45:38.094Z,996.36
2018-08-18T08:46:38.103Z,996.27
2018-08-18T08:47:38.108Z,996.24
2018-08-18T08:48:38.115Z,996.27
2018-08-18T08:49:38.122Z,996.25
2018-08-18T08:50:38.123Z,996.23
2018-08-18T08:51:38.135Z,996.19
2018-08-18T08:52:38.141Z,996.19
2018-08-18T08:53:38.139Z,996.19
2018-08-18T08:54:38.145Z,996.19
2018-08-18T08:55:38.150Z,996.23
2018-08-18T08:56:38.161Z,996.16
2018-08-18T08:57:38.167Z,996.21
2018-08-18T08:58:38.172Z,996.23
2018-08-18T08:59:38.173Z,996.23
2018-08-18T09:00:38.182Z,996.22
2018-08-18T09:01:38.181Z,996.23
2018-08-18T09:02:38.187Z,996.23
2018-08-18T09:03:38.200Z,996.21
2018-08-18T09:04:38.198Z,996.17
2018-08-18T09:05:38.207Z,996.22
2018-08-18T09:06:38.206Z,996.2
2018-08-18T09:07:38.212Z,996.15
2018-08-18T09:08:38.218Z,996.19
2018-08-18T09:09:38.223Z,996.14
2018-08-18T09:10:38.231Z,996.18
2018-08-18T09:11:38.228Z,996.15
2018-08-18T09:12:38.232Z,996.16
2018-08-18T09:13:38.236Z,996.18
2018-08-18T09:14:38.242Z,996.19
2018-08-18T09:15:38.253Z,996.16
2018-08-18T09:16:38.260Z,996.18
2018-08-18T09:17:38.259Z,996.19
2018-08-18T09:18:38.263Z,996.14
2018-08-18T09:19:38.263Z,996.14
2018-08-18T09:20:38.268Z,996.12
2018-08-18T09:21:38.273Z,996.14
2018-08-18T09:22:38.277Z,996.19
2018-08-18T09:23:38.282Z,996.14
2018-08-18T09:24:38.289Z,996.15
2018-08-18T09:25:38.293Z,996.18
2018-08-18T09:26:38.299Z,996.1
2018-08-18T09:27:38.307Z,996.11
2018-08-18T09:28:38.301Z,996.17
2018-08-18T09:29:38.308Z,996.1
2018-08-18T09:30:38.317Z,996.1
2018-08-18T09:31:38.316Z,996.16
2018-08-18T09:32:38.318Z,996.13
2018-08-18T09:33:38.323Z,996.2
2018-08-18T09:34:38.328Z,996.17
2018-08-18T09:35:38.334Z,996.16
2018-08-18T09:36:38.339Z,996.19
2018-08-18T09:37:38.341Z,996.15
2018-08-18T09:38:38.346Z,996.18
2018-08-18T09:39:38.353Z,996.18
2018-08-18T09:40:38.358Z,996.16
2018-08-18T09:41:38.360Z,996.14
2018-08-18T09:42:38.363Z,996.13
2018-08-18T09:43:38.373Z,996.15
2018-08-18T09:44:38.377Z,996.14
2018-08-18T09:45:38.388Z,996.1
2018-08-18T09:46:38.392Z,996.09
2018-08-18T09:47:38.391Z,996.14
2018-08-18T09:48:38.400Z,996.11
2018-08-18T09:49:38.397Z,996.11
2018-08-18T09:50:38.400Z,996.08
2018-08-18T09:51:38.405Z,996.04
2018-08-18T09:52:38.415Z,996.03
2018-08-18T09:53:38.416Z,995.97
2018-08-18T09:54:38.420Z,995.97
2018-08-18T09:55:38.426Z,995.98
2018-08-18T09:56:38.432Z,995.94
2018-08-18T09:57:38.432Z,996.01
2018-08-18T09:58:38.497Z,995.96
2018-08-18T09:59:38.443Z,995.96
2018-08-18T10:00:38.463Z,995.99
2018-08-18T10:01:38.468Z,995.96
2018-08-18T10:02:38.470Z,995.95
2018-08-18T10:03:38.459Z,995.97
2018-08-18T10:04:38.464Z,995.95
2018-08-18T10:05:38.622Z,996
2018-08-18T10:06:38.473Z,995.99
2018-08-18T10:07:38.479Z,995.95
2018-08-18T10:08:38.481Z,995.99
2018-08-18T10:09:38.487Z,995.91
2018-08-18T10:10:38.495Z,995.96
2018-08-18T10:11:38.497Z,995.91
2018-08-18T10:12:38.501Z,995.88
2018-08-18T10:13:38.505Z,995.9
2018-08-18T10:14:38.523Z,995.92
2018-08-18T10:15:38.519Z,995.95
2018-08-18T10:16:38.524Z,995.91
2018-08-18T10:17:38.527Z,995.91
2018-08-18T10:18:38.537Z,995.88
2018-08-18T10:19:38.540Z,995.88
2018-08-18T10:20:38.546Z,995.86
2018-08-18T10:21:38.541Z,995.9
2018-08-18T10:22:38.554Z,995.85
2018-08-18T10:23:38.560Z,995.85
2018-08-18T10:24:38.556Z,995.86
2018-08-18T10:25:38.561Z,995.85
2018-08-18T10:26:38.577Z,995.88
2018-08-18T10:27:38.569Z,995.88
2018-08-18T10:28:38.575Z,995.85
2018-08-18T10:29:38.580Z,995.84
2018-08-18T10:30:38.594Z,995.82
2018-08-18T10:31:38.593Z,995.81
2018-08-18T10:32:38.592Z,995.81
2018-08-18T10:33:38.596Z,995.8
2018-08-18T10:34:38.611Z,995.77
2018-08-18T10:35:38.613Z,995.8
2018-08-18T10:36:38.611Z,995.74
2018-08-18T10:37:38.617Z,995.74
2018-08-18T10:38:38.619Z,995.77
2018-08-18T10:39:38.629Z,995.73
2018-08-18T10:40:38.628Z,995.74
2018-08-18T10:41:38.632Z,995.73
2018-08-18T10:42:38.646Z,995.76
2018-08-18T10:43:38.640Z,995.82
2018-08-18T10:44:38.646Z,995.82
2018-08-18T10:45:38.651Z,995.79
2018-08-18T10:46:38.654Z,995.81
2018-08-18T10:47:38.661Z,995.75
2018-08-18T10:48:38.664Z,995.76
2018-08-18T10:49:38.673Z,995.72
2018-08-18T10:50:38.675Z,995.77
2018-08-18T10:51:38.725Z,995.78
2018-08-18T10:52:38.682Z,995.76
2018-08-18T10:53:38.687Z,995.78
2018-08-18T10:54:38.696Z,995.8
2018-08-18T10:55:38.697Z,995.76
2018-08-18T10:56:38.704Z,995.77
2018-08-18T10:57:38.706Z,995.71
2018-08-18T10:58:38.728Z,995.71
2018-08-18T10:59:38.720Z,995.7
2018-08-18T11:00:38.732Z,995.74
2018-08-18T11:01:38.723Z,995.7
2018-08-18T11:02:38.733Z,995.69
2018-08-18T11:03:38.737Z,995.75
2018-08-18T11:04:38.738Z,995.65
2018-08-18T11:05:38.738Z,995.7
2018-08-18T11:06:38.748Z,995.66
2018-08-18T11:07:38.751Z,995.68
2018-08-18T11:08:38.753Z,995.67
2018-08-18T11:09:38.755Z,995.62
2018-08-18T11:10:38.760Z,995.62
2018-08-18T11:11:38.773Z,995.61
2018-08-18T11:12:38.773Z,995.63
2018-08-18T11:13:38.781Z,995.61
2018-08-18T11:14:38.780Z,995.61
2018-08-18T11:15:38.790Z,995.6
2018-08-18T11:16:38.787Z,995.62
2018-08-18T11:17:38.793Z,995.57
2018-08-18T11:18:38.800Z,995.58
2018-08-18T11:19:38.809Z,995.59
2018-08-18T11:20:38.819Z,995.62
2018-08-18T11:21:38.841Z,995.57
2018-08-18T11:22:38.820Z,995.55
2018-08-18T11:23:38.831Z,995.58
2018-08-18T11:24:38.827Z,995.55
2018-08-18T11:25:38.837Z,995.51
2018-08-18T11:26:38.840Z,995.54
2018-08-18T11:27:38.841Z,995.52
2018-08-18T11:28:38.994Z,995.52
2018-08-18T11:29:38.859Z,995.52
2018-08-18T11:30:38.856Z,995.51
2018-08-18T11:31:38.868Z,995.5
2018-08-18T11:32:38.865Z,995.5
2018-08-18T11:33:38.870Z,995.52
2018-08-18T11:34:38.885Z,995.5
2018-08-18T11:35:38.891Z,995.52
2018-08-18T11:36:38.887Z,995.5
2018-08-18T11:37:38.889Z,995.52
2018-08-18T11:38:38.892Z,995.53
2018-08-18T11:39:38.898Z,995.5
2018-08-18T11:40:38.906Z,995.53
2018-08-18T11:41:39.019Z,995.52
2018-08-18T11:42:38.912Z,995.57
2018-08-18T11:43:38.918Z,995.51
2018-08-18T11:44:38.925Z,995.54
2018-08-18T11:45:38.926Z,995.52
2018-08-18T11:46:38.931Z,995.49
2018-08-18T11:47:38.940Z,995.49
2018-08-18T11:48:38.938Z,995.49
2018-08-18T11:49:38.944Z,995.51
2018-08-18T11:50:38.951Z,995.46
2018-08-18T11:51:38.954Z,995.47
2018-08-18T11:52:38.955Z,995.44
2018-08-18T11:53:38.962Z,995.45
2018-08-18T11:54:38.968Z,995.45
2018-08-18T11:55:38.972Z,995.42
2018-08-18T11:56:38.978Z,995.45
2018-08-18T11:57:38.980Z,995.44
2018-08-18T11:58:38.986Z,995.41
2018-08-18T11:59:38.995Z,995.42
2018-08-18T12:00:38.993Z,995.41
2018-08-18T12:01:39.002Z,995.41
2018-08-18T12:02:39.003Z,995.42
2018-08-18T12:03:39.009Z,995.43
2018-08-18T12:04:39.014Z,995.45
2018-08-18T12:05:39.020Z,995.43
2018-08-18T12:06:39.020Z,995.42
2018-08-18T12:07:39.029Z,995.35
2018-08-18T12:08:39.029Z,995.36
2018-08-18T12:09:39.038Z,995.36
2018-08-18T12:10:39.078Z,995.36
2018-08-18T12:11:39.046Z,995.35
2018-08-18T12:12:39.057Z,995.33
2018-08-18T12:13:39.057Z,995.31
2018-08-18T12:14:39.060Z,995.35
2018-08-18T12:15:39.066Z,995.32
2018-08-18T12:16:39.071Z,995.3
2018-08-18T12:17:39.076Z,995.32
2018-08-18T12:18:39.083Z,995.29
2018-08-18T12:19:39.086Z,995.29
2018-08-18T12:20:39.093Z,995.29
2018-08-18T12:21:39.098Z,995.27
2018-08-18T12:22:39.098Z,995.22
2018-08-18T12:23:39.107Z,995.21
2018-08-18T12:24:39.112Z,995.24
2018-08-18T12:25:39.115Z,995.21
2018-08-18T12:26:39.123Z,995.19
2018-08-18T12:27:39.126Z,995.19
2018-08-18T12:28:39.129Z,995.21
2018-08-18T12:29:39.165Z,995.26
2018-08-18T12:30:39.140Z,995.22